sensor_id;sensor_type;location;lat;lon;timestamp;temperature;humidity
7455;HTU21D;3769;51.208;4.454;2024-01-27T00:02:59;5.1;97
7455;HTU21D;3769;51.208;4.454;2024-01-27T00:07:59;5.3;97
7455;HTU21D;3769;51.208;4.454;2024-01-27T00:12:59;5.5;97.1
7455;HTU21D;3769;51.208;4.454;2024-01-27T00:17:59;5.5;97.1
7455;HTU21D;3769;51.208;4.454;2024-01-27T00:22:59;5.4;97.1
7455;HTU21D;3769;51.208;4.454;2024-01-27T00:27:59;5.3;97
7455;HTU21D;3769;51.208;4.454;2024-01-27T00:32:59;5.4;97.1
7455;HTU21D;3769;51.208;4.454;2024-01-27T00:37:59;5.1;97
7455;HTU21D;3769;51.208;4.454;2024-01-27T00:42:59;5.1;97
7455;HTU21D;3769;51.208;4.454;2024-01-27T00:47:59;5.1;97
7455;HTU21D;3769;51.208;4.454;2024-01-27T00:52:59;5.4;97.1
7455;HTU21D;3769;51.208;4.454;2024-01-27T00:57:59;5.3;97
7455;HTU21D;3769;51.208;4.454;2024-01-27T01:02:59;4.9;97
7455;HTU21D;3769;51.208;4.454;2024-01-27T01:07:59;5.2;97
7455;HTU21D;3769;51.208;4.454;2024-01-27T01:12:59;5.2;97
7455;HTU21D;3769;51.208;4.454;2024-01-27T01:17:59;5.2;97
7455;HTU21D;3769;51.208;4.454;2024-01-27T01:22:59;4.7;97
7455;HTU21D;3769;51.208;4.454;2024-01-27T01:27:59;4.7;97
7455;HTU21D;3769;51.208;4.454;2024-01-27T01:32:59;4.9;97
7455;HTU21D;3769;51.208;4.454;2024-01-27T01:37:59;5.1;97
7455;HTU21D;3769;51.208;4.454;2024-01-27T01:42:59;5;97
7455;HTU21D;3769;51.208;4.454;2024-01-27T01:47:59;5.3;97
7455;HTU21D;3769;51.208;4.454;2024-01-27T01:52:59;5.4;97.1
7455;HTU21D;3769;51.208;4.454;2024-01-27T01:57:59;5.4;97.1
7455;HTU21D;3769;51.208;4.454;2024-01-27T02:02:59;5.1;97
7455;HTU21D;3769;51.208;4.454;2024-01-27T02:07:59;5.4;97.1
7455;HTU21D;3769;51.208;4.454;2024-01-27T02:12:59;5.7;97.1
7455;HTU21D;3769;51.208;4.454;2024-01-27T02:17:59;5.6;97.1
7455;HTU21D;3769;51.208;4.454;2024-01-27T02:22:59;5.5;97.1
7455;HTU21D;3769;51.208;4.454;2024-01-27T02:27:59;5.1;97
7455;HTU21D;3769;51.208;4.454;2024-01-27T02:32:59;4.9;97
7455;HTU21D;3769;51.208;4.454;2024-01-27T02:37:59;5.3;97
7455;HTU21D;3769;51.208;4.454;2024-01-27T02:42:59;5.3;97
7455;HTU21D;3769;51.208;4.454;2024-01-27T02:47:59;5.4;97.1
7455;HTU21D;3769;51.208;4.454;2024-01-27T02:52:59;5.1;97
7455;HTU21D;3769;51.208;4.454;2024-01-27T02:57:59;5.1;97
7455;HTU21D;3769;51.208;4.454;2024-01-27T03:02:59;5.1;97
7455;HTU21D;3769;51.208;4.454;2024-01-27T03:07:59;4.9;97
7455;HTU21D;3769;51.208;4.454;2024-01-27T03:12:59;5;97
7455;HTU21D;3769;51.208;4.454;2024-01-27T03:17:59;4.7;97
7455;HTU21D;3769;51.208;4.454;2024-01-27T03:22:59;4.7;97
7455;HTU21D;3769;51.208;4.454;2024-01-27T03:27:59;4.6;96.9
7455;HTU21D;3769;51.208;4.454;2024-01-27T03:32:59;4.3;96.9
7455;HTU21D;3769;51.208;4.454;2024-01-27T03:37:59;4.6;96.9
7455;HTU21D;3769;51.208;4.454;2024-01-27T03:42:59;4.5;96.9
7455;HTU21D;3769;51.208;4.454;2024-01-27T03:47:59;4.5;96.9
7455;HTU21D;3769;51.208;4.454;2024-01-27T03:52:59;4.5;96.9
7455;HTU21D;3769;51.208;4.454;2024-01-27T03:57:59;4.5;96.9
7455;HTU21D;3769;51.208;4.454;2024-01-27T04:02:59;4.6;96.9
7455;HTU21D;3769;51.208;4.454;2024-01-27T04:07:59;4.6;96.9
7455;HTU21D;3769;51.208;4.454;2024-01-27T04:12:59;4.4;96.9
7455;HTU21D;3769;51.208;4.454;2024-01-27T04:17:59;4.2;96.9
7455;HTU21D;3769;51.208;4.454;2024-01-27T04:22:59;4.3;96.9
7455;HTU21D;3769;51.208;4.454;2024-01-27T04:27:59;4.1;96.9
7455;HTU21D;3769;51.208;4.454;2024-01-27T04:32:59;3.8;96.8
7455;HTU21D;3769;51.208;4.454;2024-01-27T04:37:59;3.9;96.8
7455;HTU21D;3769;51.208;4.454;2024-01-27T04:42:59;4;96.8
7455;HTU21D;3769;51.208;4.454;2024-01-27T04:47:59;3.9;96.8
7455;HTU21D;3769;51.208;4.454;2024-01-27T04:52:59;3.6;96.8
7455;HTU21D;3769;51.208;4.454;2024-01-27T04:57:59;3.6;96.8
7455;HTU21D;3769;51.208;4.454;2024-01-27T05:02:59;3.5;96.8
7455;HTU21D;3769;51.208;4.454;2024-01-27T05:07:59;3.6;96.8
7455;HTU21D;3769;51.208;4.454;2024-01-27T05:12:59;3.5;96.8
7455;HTU21D;3769;51.208;4.454;2024-01-27T05:17:59;3.8;96.8
7455;HTU21D;3769;51.208;4.454;2024-01-27T05:22:59;3.9;96.8
7455;HTU21D;3769;51.208;4.454;2024-01-27T05:27:59;3.9;96.8
7455;HTU21D;3769;51.208;4.454;2024-01-27T05:32:59;3.9;96.8
7455;HTU21D;3769;51.208;4.454;2024-01-27T05:37:59;3.9;96.8
7455;HTU21D;3769;51.208;4.454;2024-01-27T05:42:59;3.7;96.8
7455;HTU21D;3769;51.208;4.454;2024-01-27T05:47:59;3.8;96.8
7455;HTU21D;3769;51.208;4.454;2024-01-27T05:52:59;3.5;96.8
7455;HTU21D;3769;51.208;4.454;2024-01-27T05:57:59;3.5;96.8
7455;HTU21D;3769;51.208;4.454;2024-01-27T06:02:59;3.5;96.8
7455;HTU21D;3769;51.208;4.454;2024-01-27T06:07:59;3.3;96.7
7455;HTU21D;3769;51.208;4.454;2024-01-27T06:12:59;3.4;96.8
7455;HTU21D;3769;51.208;4.454;2024-01-27T06:17:59;3.5;96.8
7455;HTU21D;3769;51.208;4.454;2024-01-27T06:22:59;3.3;96.7
7455;HTU21D;3769;51.208;4.454;2024-01-27T06:27:59;3.3;96.7
7455;HTU21D;3769;51.208;4.454;2024-01-27T06:32:59;3.2;96.7
7455;HTU21D;3769;51.208;4.454;2024-01-27T06:37:59;3.3;96.7
7455;HTU21D;3769;51.208;4.454;2024-01-27T06:42:59;3.2;96.7
7455;HTU21D;3769;51.208;4.454;2024-01-27T06:47:59;3.1;96.7
7455;HTU21D;3769;51.208;4.454;2024-01-27T06:52:59;2.9;96.7
7455;HTU21D;3769;51.208;4.454;2024-01-27T06:57:59;3.2;96.7
7455;HTU21D;3769;51.208;4.454;2024-01-27T07:02:59;3.1;96.7
7455;HTU21D;3769;51.208;4.454;2024-01-27T07:07:59;2.9;96.7
7455;HTU21D;3769;51.208;4.454;2024-01-27T07:12:59;3.1;96.7
7455;HTU21D;3769;51.208;4.454;2024-01-27T07:17:59;3.3;96.7
7455;HTU21D;3769;51.208;4.454;2024-01-27T07:22:59;3.1;96.7
7455;HTU21D;3769;51.208;4.454;2024-01-27T07:27:59;3.2;96.7
7455;HTU21D;3769;51.208;4.454;2024-01-27T07:32:59;3;96.7
7455;HTU21D;3769;51.208;4.454;2024-01-27T07:37:59;3.2;96.7
7455;HTU21D;3769;51.208;4.454;2024-01-27T07:42:59;3.3;96.7
7455;HTU21D;3769;51.208;4.454;2024-01-27T07:47:59;2.9;96.7
7455;HTU21D;3769;51.208;4.454;2024-01-27T07:52:59;2.8;96.7
7455;HTU21D;3769;51.208;4.454;2024-01-27T07:57:59;2.8;96.7
7455;HTU21D;3769;51.208;4.454;2024-01-27T08:02:59;3;96.7
7455;HTU21D;3769;51.208;4.454;2024-01-27T08:07:59;3.1;96.7
7455;HTU21D;3769;51.208;4.454;2024-01-27T08:12:59;3.3;96.7
7455;HTU21D;3769;51.208;4.454;2024-01-27T08:17:59;3.3;96.7
7455;HTU21D;3769;51.208;4.454;2024-01-27T08:22:59;3;96.7
7455;HTU21D;3769;51.208;4.454;2024-01-27T08:27:59;3.2;96.7
7455;HTU21D;3769;51.208;4.454;2024-01-27T08:32:59;3.4;96.8
7455;HTU21D;3769;51.208;4.454;2024-01-27T08:37:59;3.4;96.8
7455;HTU21D;3769;51.208;4.454;2024-01-27T08:42:59;3.5;96.8
7455;HTU21D;3769;51.208;4.454;2024-01-27T08:47:59;3.7;96.8
7455;HTU21D;3769;51.208;4.454;2024-01-27T08:52:59;3.8;96.8
7455;HTU21D;3769;51.208;4.454;2024-01-27T08:57:59;4;96.8
7455;HTU21D;3769;51.208;4.454;2024-01-27T09:02:59;4;96.9
7455;HTU21D;3769;51.208;4.454;2024-01-27T09:07:59;3.9;96.8
7455;HTU21D;3769;51.208;4.454;2024-01-27T09:12:59;4;96.9
7455;HTU21D;3769;51.208;4.454;2024-01-27T09:17:59;3.9;96.8
7455;HTU21D;3769;51.208;4.454;2024-01-27T09:22:59;4;96.9
7455;HTU21D;3769;51.208;4.454;2024-01-27T09:27:59;4;96.9
7455;HTU21D;3769;51.208;4.454;2024-01-27T09:32:59;4.2;96.9
7455;HTU21D;3769;51.208;4.454;2024-01-27T09:37:59;4.2;96.9
7455;HTU21D;3769;51.208;4.454;2024-01-27T09:42:59;4.3;96.9
7455;HTU21D;3769;51.208;4.454;2024-01-27T09:47:59;4.4;96.9
7455;HTU21D;3769;51.208;4.454;2024-01-27T09:52:59;4.6;96.9
7455;HTU21D;3769;51.208;4.454;2024-01-27T09:57:59;4.7;97
7455;HTU21D;3769;51.208;4.454;2024-01-27T10:02:59;4.7;97
7455;HTU21D;3769;51.208;4.454;2024-01-27T10:07:59;5.1;97
7455;HTU21D;3769;51.208;4.454;2024-01-27T10:12:59;5.1;97
7455;HTU21D;3769;51.208;4.454;2024-01-27T10:18:06;5.1;97
7455;HTU21D;3769;51.208;4.454;2024-01-27T10:22:59;5.2;97
7455;HTU21D;3769;51.208;4.454;2024-01-27T10:27:59;5.3;97
7455;HTU21D;3769;51.208;4.454;2024-01-27T10:32:59;5.5;97.1
7455;HTU21D;3769;51.208;4.454;2024-01-27T10:37:59;5.6;97.1
7455;HTU21D;3769;51.208;4.454;2024-01-27T10:43:01;5.6;97.1
7455;HTU21D;3769;51.208;4.454;2024-01-27T10:47:59;5.9;97.1
7455;HTU21D;3769;51.208;4.454;2024-01-27T10:52:59;5.8;97.1
7455;HTU21D;3769;51.208;4.454;2024-01-27T10:57:59;6;97.2
7455;HTU21D;3769;51.208;4.454;2024-01-27T11:02:59;6;97.2
7455;HTU21D;3769;51.208;4.454;2024-01-27T11:07:59;6.2;97.2
7455;HTU21D;3769;51.208;4.454;2024-01-27T11:12:59;6.5;97.2
7455;HTU21D;3769;51.208;4.454;2024-01-27T11:17:59;6.4;97.2
7455;HTU21D;3769;51.208;4.454;2024-01-27T11:23:14;6.5;97.2
7455;HTU21D;3769;51.208;4.454;2024-01-27T11:27:59;6.5;97.2
7455;HTU21D;3769;51.208;4.454;2024-01-27T11:33:00;6.7;97.3
7455;HTU21D;3769;51.208;4.454;2024-01-27T11:37:59;6.9;97.3
7455;HTU21D;3769;51.208;4.454;2024-01-27T11:43:00;7;97.3
7455;HTU21D;3769;51.208;4.454;2024-01-27T11:48:00;7.1;97.3
7455;HTU21D;3769;51.208;4.454;2024-01-27T11:52:59;7.2;97.3
7455;HTU21D;3769;51.208;4.454;2024-01-27T11:57:59;7.2;97.3
7455;HTU21D;3769;51.208;4.454;2024-01-27T12:02:59;7.4;97.4
7455;HTU21D;3769;51.208;4.454;2024-01-27T12:07:59;7.2;97.3
7455;HTU21D;3769;51.208;4.454;2024-01-27T12:13:00;7.4;97.4
7455;HTU21D;3769;51.208;4.454;2024-01-27T12:17:59;7.5;97.4
7455;HTU21D;3769;51.208;4.454;2024-01-27T12:23:06;7.3;97.4
7455;HTU21D;3769;51.208;4.454;2024-01-27T12:28:04;7.4;97.4
7455;HTU21D;3769;51.208;4.454;2024-01-27T12:32:59;7.6;97.4
7455;HTU21D;3769;51.208;4.454;2024-01-27T12:37:59;7.6;97.4
7455;HTU21D;3769;51.208;4.454;2024-01-27T12:42:59;7.5;97.4
7455;HTU21D;3769;51.208;4.454;2024-01-27T12:47:59;7.5;97.4
7455;HTU21D;3769;51.208;4.454;2024-01-27T12:52:59;7.3;97.3
7455;HTU21D;3769;51.208;4.454;2024-01-27T12:57:59;7.5;97.4
7455;HTU21D;3769;51.208;4.454;2024-01-27T13:02:59;7.4;97.4
7455;HTU21D;3769;51.208;4.454;2024-01-27T13:07:59;7.5;97.4
7455;HTU21D;3769;51.208;4.454;2024-01-27T13:12:59;7.4;97.4
7455;HTU21D;3769;51.208;4.454;2024-01-27T13:17:59;7.4;97.4
7455;HTU21D;3769;51.208;4.454;2024-01-27T13:22:59;7.7;97.4
7455;HTU21D;3769;51.208;4.454;2024-01-27T13:27:59;7.6;97.4
7455;HTU21D;3769;51.208;4.454;2024-01-27T13:32:59;7.8;97.4
7455;HTU21D;3769;51.208;4.454;2024-01-27T13:37:59;7.7;97.4
7455;HTU21D;3769;51.208;4.454;2024-01-27T13:42:59;7.6;97.4
7455;HTU21D;3769;51.208;4.454;2024-01-27T13:47:59;7.8;97.4
7455;HTU21D;3769;51.208;4.454;2024-01-27T13:52:59;7.7;97.4
7455;HTU21D;3769;51.208;4.454;2024-01-27T13:57:59;7.8;97.4
7455;HTU21D;3769;51.208;4.454;2024-01-27T14:02:59;7.9;97.4
7455;HTU21D;3769;51.208;4.454;2024-01-27T14:07:59;8;97.4
7455;HTU21D;3769;51.208;4.454;2024-01-27T14:12:59;8.1;97.5
7455;HTU21D;3769;51.208;4.454;2024-01-27T14:17:59;8.1;97.5
7455;HTU21D;3769;51.208;4.454;2024-01-27T14:22:59;8;97.4
7455;HTU21D;3769;51.208;4.454;2024-01-27T14:27:59;8.1;97.5
7455;HTU21D;3769;51.208;4.454;2024-01-27T14:32:59;8.1;97.5
7455;HTU21D;3769;51.208;4.454;2024-01-27T14:37:59;8.2;97.5
7455;HTU21D;3769;51.208;4.454;2024-01-27T14:42:59;8;95.6
7455;HTU21D;3769;51.208;4.454;2024-01-27T14:47:59;8.1;93.9
7455;HTU21D;3769;51.208;4.454;2024-01-27T14:52:59;8.2;96.4
7455;HTU21D;3769;51.208;4.454;2024-01-27T14:57:59;8.2;89.2
7455;HTU21D;3769;51.208;4.454;2024-01-27T15:02:59;8.2;87
7455;HTU21D;3769;51.208;4.454;2024-01-27T15:07:59;8;88.9
7455;HTU21D;3769;51.208;4.454;2024-01-27T15:12:59;7.9;95.1
7455;HTU21D;3769;51.208;4.454;2024-01-27T15:17:59;7.8;96
7455;HTU21D;3769;51.208;4.454;2024-01-27T15:22:59;7.7;97.4
7455;HTU21D;3769;51.208;4.454;2024-01-27T15:28:00;7.7;97.4
7455;HTU21D;3769;51.208;4.454;2024-01-27T15:32:59;7.6;97.4
7455;HTU21D;3769;51.208;4.454;2024-01-27T15:37:59;7.5;97.4
7455;HTU21D;3769;51.208;4.454;2024-01-27T15:42:59;7.4;97.4
7455;HTU21D;3769;51.208;4.454;2024-01-27T15:47:59;7.4;97.4
7455;HTU21D;3769;51.208;4.454;2024-01-27T15:52:59;7.3;97.3
7455;HTU21D;3769;51.208;4.454;2024-01-27T15:57:59;7.1;97.3
7455;HTU21D;3769;51.208;4.454;2024-01-27T16:02:59;7.1;97.3
7455;HTU21D;3769;51.208;4.454;2024-01-27T16:07:59;7;97.3
7455;HTU21D;3769;51.208;4.454;2024-01-27T16:12:59;6.9;97.3
7455;HTU21D;3769;51.208;4.454;2024-01-27T16:17:59;6.7;97.3
7455;HTU21D;3769;51.208;4.454;2024-01-27T16:22:59;6.7;97.2
7455;HTU21D;3769;51.208;4.454;2024-01-27T16:27:59;6.6;97.2
7455;HTU21D;3769;51.208;4.454;2024-01-27T16:32:59;6.5;97.2
7455;HTU21D;3769;51.208;4.454;2024-01-27T16:37:59;6.7;97.3
7455;HTU21D;3769;51.208;4.454;2024-01-27T16:42:59;6.9;97.3
7455;HTU21D;3769;51.208;4.454;2024-01-27T16:48:00;7;97.3
7455;HTU21D;3769;51.208;4.454;2024-01-27T16:52:59;6.9;97.3
7455;HTU21D;3769;51.208;4.454;2024-01-27T16:57:59;6.9;97.3
7455;HTU21D;3769;51.208;4.454;2024-01-27T17:02:59;6.8;97.3
7455;HTU21D;3769;51.208;4.454;2024-01-27T17:07:59;6.8;97.3
7455;HTU21D;3769;51.208;4.454;2024-01-27T17:12:59;6.8;97.3
7455;HTU21D;3769;51.208;4.454;2024-01-27T17:17:59;6.6;97.2
7455;HTU21D;3769;51.208;4.454;2024-01-27T17:22:59;6.6;97.2
7455;HTU21D;3769;51.208;4.454;2024-01-27T17:27:59;6.5;97.2
7455;HTU21D;3769;51.208;4.454;2024-01-27T17:32:59;6.4;97.2
7455;HTU21D;3769;51.208;4.454;2024-01-27T17:37:59;6.3;97.2
7455;HTU21D;3769;51.208;4.454;2024-01-27T17:42:59;6.4;97.2
7455;HTU21D;3769;51.208;4.454;2024-01-27T17:47:59;6.6;97.2
7455;HTU21D;3769;51.208;4.454;2024-01-27T17:52:59;6.5;97.2
7455;HTU21D;3769;51.208;4.454;2024-01-27T17:57:59;6.3;97.2
7455;HTU21D;3769;51.208;4.454;2024-01-27T18:02:59;6.3;97.2
7455;HTU21D;3769;51.208;4.454;2024-01-27T18:07:59;6.3;97.2
7455;HTU21D;3769;51.208;4.454;2024-01-27T18:12:59;6.3;97.2
7455;HTU21D;3769;51.208;4.454;2024-01-27T18:17:59;6.3;97.2
7455;HTU21D;3769;51.208;4.454;2024-01-27T18:22:59;6.1;97.2
7455;HTU21D;3769;51.208;4.454;2024-01-27T18:27:59;6.1;97.2
7455;HTU21D;3769;51.208;4.454;2024-01-27T18:32:59;6.1;97.2
7455;HTU21D;3769;51.208;4.454;2024-01-27T18:37:59;6;97.2
7455;HTU21D;3769;51.208;4.454;2024-01-27T18:42:59;6;97.1
7455;HTU21D;3769;51.208;4.454;2024-01-27T18:47:59;6;97.2
7455;HTU21D;3769;51.208;4.454;2024-01-27T18:52:59;6.1;97.2
7455;HTU21D;3769;51.208;4.454;2024-01-27T18:57:59;6.1;97.2
7455;HTU21D;3769;51.208;4.454;2024-01-27T19:02:59;6.3;97.2
7455;HTU21D;3769;51.208;4.454;2024-01-27T19:07:59;6.3;97.2
7455;HTU21D;3769;51.208;4.454;2024-01-27T19:12:59;6.3;97.2
7455;HTU21D;3769;51.208;4.454;2024-01-27T19:17:59;6.5;97.2
7455;HTU21D;3769;51.208;4.454;2024-01-27T19:22:59;5.8;97.1
7455;HTU21D;3769;51.208;4.454;2024-01-27T19:27:59;5.5;97.1
7455;HTU21D;3769;51.208;4.454;2024-01-27T19:32:59;5.4;97.1
7455;HTU21D;3769;51.208;4.454;2024-01-27T19:37:59;5.4;97.1
7455;HTU21D;3769;51.208;4.454;2024-01-27T19:42:59;5.2;97
7455;HTU21D;3769;51.208;4.454;2024-01-27T19:47:59;5.1;97
7455;HTU21D;3769;51.208;4.454;2024-01-27T19:52:59;5.2;97
7455;HTU21D;3769;51.208;4.454;2024-01-27T19:57:59;5.2;97
7455;HTU21D;3769;51.208;4.454;2024-01-27T20:02:59;5;97
7455;HTU21D;3769;51.208;4.454;2024-01-27T20:07:59;5.2;97
7455;HTU21D;3769;51.208;4.454;2024-01-27T20:12:59;4.9;97
7455;HTU21D;3769;51.208;4.454;2024-01-27T20:17:59;4.8;97
7455;HTU21D;3769;51.208;4.454;2024-01-27T20:22:59;4.8;97
7455;HTU21D;3769;51.208;4.454;2024-01-27T20:27:59;4.7;97
7455;HTU21D;3769;51.208;4.454;2024-01-27T20:32:59;4.5;96.9
7455;HTU21D;3769;51.208;4.454;2024-01-27T20:37:59;4.5;96.9
7455;HTU21D;3769;51.208;4.454;2024-01-27T20:42:59;4.6;96.9
7455;HTU21D;3769;51.208;4.454;2024-01-27T20:47:59;4.6;96.9
7455;HTU21D;3769;51.208;4.454;2024-01-27T20:52:59;4.5;96.9
7455;HTU21D;3769;51.208;4.454;2024-01-27T20:57:59;4.4;96.9
7455;HTU21D;3769;51.208;4.454;2024-01-27T21:02:59;4.3;96.9
7455;HTU21D;3769;51.208;4.454;2024-01-27T21:07:59;4.3;96.9
7455;HTU21D;3769;51.208;4.454;2024-01-27T21:12:59;4.4;96.9
7455;HTU21D;3769;51.208;4.454;2024-01-27T21:17:59;4.9;97
7455;HTU21D;3769;51.208;4.454;2024-01-27T21:22:59;5;97
7455;HTU21D;3769;51.208;4.454;2024-01-27T21:27:59;5;97
7455;HTU21D;3769;51.208;4.454;2024-01-27T21:32:59;4.8;97
7455;HTU21D;3769;51.208;4.454;2024-01-27T21:37:59;4.6;96.9
7455;HTU21D;3769;51.208;4.454;2024-01-27T21:42:59;4.5;96.9
7455;HTU21D;3769;51.208;4.454;2024-01-27T21:47:59;4.4;96.9
7455;HTU21D;3769;51.208;4.454;2024-01-27T21:52:59;4.3;96.9
7455;HTU21D;3769;51.208;4.454;2024-01-27T21:57:59;4.4;96.9
7455;HTU21D;3769;51.208;4.454;2024-01-27T22:02:59;4;96.9
7455;HTU21D;3769;51.208;4.454;2024-01-27T22:07:59;4;96.8
7455;HTU21D;3769;51.208;4.454;2024-01-27T22:12:59;3.9;96.8
7455;HTU21D;3769;51.208;4.454;2024-01-27T22:17:59;3.8;96.8
7455;HTU21D;3769;51.208;4.454;2024-01-27T22:22:59;3.8;96.8
7455;HTU21D;3769;51.208;4.454;2024-01-27T22:27:59;3.6;96.8
7455;HTU21D;3769;51.208;4.454;2024-01-27T22:32:59;3.6;96.8
7455;HTU21D;3769;51.208;4.454;2024-01-27T22:37:59;3.8;96.8
7455;HTU21D;3769;51.208;4.454;2024-01-27T22:42:59;3.7;96.8
7455;HTU21D;3769;51.208;4.454;2024-01-27T22:47:59;3.6;96.8
7455;HTU21D;3769;51.208;4.454;2024-01-27T22:52:59;3.5;96.8
7455;HTU21D;3769;51.208;4.454;2024-01-27T22:57:59;3.5;96.8
7455;HTU21D;3769;51.208;4.454;2024-01-27T23:03:00;3.5;96.8
7455;HTU21D;3769;51.208;4.454;2024-01-27T23:07:59;3.6;96.8
7455;HTU21D;3769;51.208;4.454;2024-01-27T23:13:00;3.5;96.8
7455;HTU21D;3769;51.208;4.454;2024-01-27T23:17:59;3.4;96.8
7455;HTU21D;3769;51.208;4.454;2024-01-27T23:22:59;3.5;96.8
7455;HTU21D;3769;51.208;4.454;2024-01-27T23:27:59;3.6;96.8
7455;HTU21D;3769;51.208;4.454;2024-01-27T23:32:59;3.3;96.8
7455;HTU21D;3769;51.208;4.454;2024-01-27T23:37:59;3.3;96.7
7455;HTU21D;3769;51.208;4.454;2024-01-27T23:42:59;3.7;96.8
7455;HTU21D;3769;51.208;4.454;2024-01-27T23:47:59;3.5;96.8
7455;HTU21D;3769;51.208;4.454;2024-01-27T23:52:59;3.6;96.8
7455;HTU21D;3769;51.208;4.454;2024-01-27T23:57:59;3.8;96.8
